sensor_id;sensor_type;location;lat;lon;timestamp;temperature;humidity
19483;DHT22;9882;51.166;6.992;2022-10-31T05:00:55;14.80;99.90
19483;DHT22;9882;51.166;6.992;2022-10-31T05:03:26;14.90;99.90
19483;DHT22;9882;51.166;6.992;2022-10-31T05:05:55;14.80;99.90
19483;DHT22;9882;51.166;6.992;2022-10-31T05:08:23;14.80;99.90
19483;DHT22;9882;51.166;6.992;2022-10-31T05:10:53;14.80;99.90
19483;DHT22;9882;51.166;6.992;2022-10-31T05:13:22;14.80;99.90
19483;DHT22;9882;51.166;6.992;2022-10-31T05:16:11;14.70;99.90
19483;DHT22;9882;51.166;6.992;2022-10-31T05:19:15;14.80;99.90
19483;DHT22;9882;51.166;6.992;2022-10-31T05:22:04;14.80;99.90
19483;DHT22;9882;51.166;6.992;2022-10-31T05:24:33;14.70;99.90
19483;DHT22;9882;51.166;6.992;2022-10-31T05:27:09;14.70;99.90
19483;DHT22;9882;51.166;6.992;2022-10-31T05:29:38;14.70;99.90
19483;DHT22;9882;51.166;6.992;2022-10-31T05:32:09;14.80;99.90
19483;DHT22;9882;51.166;6.992;2022-10-31T05:34:57;14.80;99.90
19483;DHT22;9882;51.166;6.992;2022-10-31T05:37:49;14.80;99.90
19483;DHT22;9882;51.166;6.992;2022-10-31T05:40:18;14.80;99.90
19483;DHT22;9882;51.166;6.992;2022-10-31T05:42:51;14.70;99.90
19483;DHT22;9882;51.166;6.992;2022-10-31T05:45:21;14.70;99.90
19483;DHT22;9882;51.166;6.992;2022-10-31T05:47:58;14.70;99.90
19483;DHT22;9882;51.166;6.992;2022-10-31T05:50:48;14.70;99.90
19483;DHT22;9882;51.166;6.992;2022-10-31T05:53:18;14.60;99.90
19483;DHT22;9882;51.166;6.992;2022-10-31T05:55:47;14.60;99.90
19483;DHT22;9882;51.166;6.992;2022-10-31T05:58:21;14.50;99.90
19483;DHT22;9882;51.166;6.992;2022-10-31T06:01:10;14.60;99.90
19483;DHT22;9882;51.166;6.992;2022-10-31T06:03:40;14.60;99.90
19483;DHT22;9882;51.166;6.992;2022-10-31T06:06:26;14.60;99.90
19483;DHT22;9882;51.166;6.992;2022-10-31T06:08:55;14.60;99.90
19483;DHT22;9882;51.166;6.992;2022-10-31T06:13:58;14.60;99.90
19483;DHT22;9882;51.166;6.992;2022-10-31T06:16:35;14.60;99.90
19483;DHT22;9882;51.166;6.992;2022-10-31T06:19:24;14.60;99.90
19483;DHT22;9882;51.166;6.992;2022-10-31T06:21:53;14.50;99.90
19483;DHT22;9882;51.166;6.992;2022-10-31T06:24:22;14.50;99.90
19483;DHT22;9882;51.166;6.992;2022-10-31T06:27:04;14.50;99.90
19483;DHT22;9882;51.166;6.992;2022-10-31T06:29:32;14.50;99.90
19483;DHT22;9882;51.166;6.992;2022-10-31T06:32:05;14.50;99.90
19483;DHT22;9882;51.166;6.992;2022-10-31T06:34:40;14.50;99.90
19483;DHT22;9882;51.166;6.992;2022-10-31T06:37:10;14.50;99.90
19483;DHT22;9882;51.166;6.992;2022-10-31T06:39:42;14.50;99.90
19483;DHT22;9882;51.166;6.992;2022-10-31T06:42:12;14.50;99.90
19483;DHT22;9882;51.166;6.992;2022-10-31T06:44:43;14.50;99.90
19483;DHT22;9882;51.166;6.992;2022-10-31T06:47:51;14.50;99.90
19483;DHT22;9882;51.166;6.992;2022-10-31T06:50:44;14.40;99.90
19483;DHT22;9882;51.166;6.992;2022-10-31T06:53:14;14.40;99.90
19483;DHT22;9882;51.166;6.992;2022-10-31T06:55:43;14.40;99.90
19483;DHT22;9882;51.166;6.992;2022-10-31T06:58:12;14.40;99.90
19483;DHT22;9882;51.166;6.992;2022-10-31T07:00:43;14.30;99.90
19483;DHT22;9882;51.166;6.992;2022-10-31T07:03:14;14.40;99.90
19483;DHT22;9882;51.166;6.992;2022-10-31T07:05:46;14.40;99.90
19483;DHT22;9882;51.166;6.992;2022-10-31T07:08:15;14.40;99.90
19483;DHT22;9882;51.166;6.992;2022-10-31T07:10:51;14.40;99.90
19483;DHT22;9882;51.166;6.992;2022-10-31T07:13:21;14.40;99.90
19483;DHT22;9882;51.166;6.992;2022-10-31T07:16:03;14.40;99.90
19483;DHT22;9882;51.166;6.992;2022-10-31T07:18:34;14.40;99.90
19483;DHT22;9882;51.166;6.992;2022-10-31T07:21:04;14.40;99.90
19483;DHT22;9882;51.166;6.992;2022-10-31T07:23:33;14.40;99.90
19483;DHT22;9882;51.166;6.992;2022-10-31T07:26:22;14.40;99.90
19483;DHT22;9882;51.166;6.992;2022-10-31T07:28:51;14.40;99.90
19483;DHT22;9882;51.166;6.992;2022-10-31T07:31:22;14.40;99.90
19483;DHT22;9882;51.166;6.992;2022-10-31T07:33:53;14.40;99.90
19483;DHT22;9882;51.166;6.992;2022-10-31T07:36:29;14.40;99.90
19483;DHT22;9882;51.166;6.992;2022-10-31T07:39:02;14.40;99.90
19483;DHT22;9882;51.166;6.992;2022-10-31T07:41:34;14.50;99.90
19483;DHT22;9882;51.166;6.992;2022-10-31T07:44:03;14.40;99.90
19483;DHT22;9882;51.166;6.992;2022-10-31T07:46:51;14.50;99.90
19483;DHT22;9882;51.166;6.992;2022-10-31T07:49:39;14.40;99.90
19483;DHT22;9882;51.166;6.992;2022-10-31T07:52:27;14.60;99.90
19483;DHT22;9882;51.166;6.992;2022-10-31T07:55:14;14.40;99.90
19483;DHT22;9882;51.166;6.992;2022-10-31T07:57:55;14.40;99.90
19483;DHT22;9882;51.166;6.992;2022-10-31T08:00:24;14.30;99.90
19483;DHT22;9882;51.166;6.992;2022-10-31T08:02:59;14.30;99.90
19483;DHT22;9882;51.166;6.992;2022-10-31T08:05:46;14.30;99.90
19483;DHT22;9882;51.166;6.992;2022-10-31T08:08:34;14.20;99.90
19483;DHT22;9882;51.166;6.992;2022-10-31T08:11:04;14.20;99.90
19483;DHT22;9882;51.166;6.992;2022-10-31T08:13:32;14.20;99.90
19483;DHT22;9882;51.166;6.992;2022-10-31T08:16:02;14.20;99.90
19483;DHT22;9882;51.166;6.992;2022-10-31T08:18:36;14.20;99.90
19483;DHT22;9882;51.166;6.992;2022-10-31T08:21:08;14.10;99.90
19483;DHT22;9882;51.166;6.992;2022-10-31T08:23:39;14.10;99.90
19483;DHT22;9882;51.166;6.992;2022-10-31T08:26:08;14.00;99.90
19483;DHT22;9882;51.166;6.992;2022-10-31T08:28:37;14.10;99.90
19483;DHT22;9882;51.166;6.992;2022-10-31T08:31:06;14.10;99.90
19483;DHT22;9882;51.166;6.992;2022-10-31T08:33:39;14.10;99.90
19483;DHT22;9882;51.166;6.992;2022-10-31T08:36:27;14.20;99.90
19483;DHT22;9882;51.166;6.992;2022-10-31T08:39:14;14.20;99.90
19483;DHT22;9882;51.166;6.992;2022-10-31T08:41:42;14.20;99.90
19483;DHT22;9882;51.166;6.992;2022-10-31T08:44:13;14.30;99.90
19483;DHT22;9882;51.166;6.992;2022-10-31T08:46:43;14.20;99.90
19483;DHT22;9882;51.166;6.992;2022-10-31T08:49:11;14.30;99.90
19483;DHT22;9882;51.166;6.992;2022-10-31T08:51:42;14.30;99.90
19483;DHT22;9882;51.166;6.992;2022-10-31T08:54:11;14.30;99.90
19483;DHT22;9882;51.166;6.992;2022-10-31T08:56:56;14.30;99.90
19483;DHT22;9882;51.166;6.992;2022-10-31T08:59:38;14.40;99.90
19483;DHT22;9882;51.166;6.992;2022-10-31T09:02:22;14.40;99.90
19483;DHT22;9882;51.166;6.992;2022-10-31T09:04:55;14.50;99.90
19483;DHT22;9882;51.166;6.992;2022-10-31T09:07:24;14.50;99.90
19483;DHT22;9882;51.166;6.992;2022-10-31T09:09:54;14.50;99.90
19483;DHT22;9882;51.166;6.992;2022-10-31T09:12:25;14.50;99.90
19483;DHT22;9882;51.166;6.992;2022-10-31T09:15:19;14.60;99.90
19483;DHT22;9882;51.166;6.992;2022-10-31T09:17:57;14.60;99.90
19483;DHT22;9882;51.166;6.992;2022-10-31T09:20:52;14.60;99.90
19483;DHT22;9882;51.166;6.992;2022-10-31T09:23:22;14.60;99.90
19483;DHT22;9882;51.166;6.992;2022-10-31T09:25:52;14.70;99.90
19483;DHT22;9882;51.166;6.992;2022-10-31T09:28:37;14.80;99.90
19483;DHT22;9882;51.166;6.992;2022-10-31T09:31:11;14.90;99.90
19483;DHT22;9882;51.166;6.992;2022-10-31T09:33:46;15.00;99.90
19483;DHT22;9882;51.166;6.992;2022-10-31T09:36:44;15.10;99.90
19483;DHT22;9882;51.166;6.992;2022-10-31T09:39:24;15.10;99.90
19483;DHT22;9882;51.166;6.992;2022-10-31T09:42:31;15.10;99.90
19483;DHT22;9882;51.166;6.992;2022-10-31T09:45:16;15.10;99.90
19483;DHT22;9882;51.166;6.992;2022-10-31T09:47:55;15.20;99.90
19483;DHT22;9882;51.166;6.992;2022-10-31T09:50:39;15.30;99.90
19483;DHT22;9882;51.166;6.992;2022-10-31T09:53:35;15.20;99.90
19483;DHT22;9882;51.166;6.992;2022-10-31T09:56:08;15.40;99.90
19483;DHT22;9882;51.166;6.992;2022-10-31T09:58:42;15.20;99.90
19483;DHT22;9882;51.166;6.992;2022-10-31T10:01:29;15.40;99.90
19483;DHT22;9882;51.166;6.992;2022-10-31T10:04:02;15.50;99.90
19483;DHT22;9882;51.166;6.992;2022-10-31T10:06:52;15.60;99.90
19483;DHT22;9882;51.166;6.992;2022-10-31T10:10:00;15.80;99.90
19483;DHT22;9882;51.166;6.992;2022-10-31T10:13:11;15.80;99.90
19483;DHT22;9882;51.166;6.992;2022-10-31T10:15:56;15.90;99.90
19483;DHT22;9882;51.166;6.992;2022-10-31T10:18:37;15.80;99.90
19483;DHT22;9882;51.166;6.992;2022-10-31T10:21:16;16.00;99.90
19483;DHT22;9882;51.166;6.992;2022-10-31T10:23:56;16.20;99.90
19483;DHT22;9882;51.166;6.992;2022-10-31T10:26:34;15.80;99.90
19483;DHT22;9882;51.166;6.992;2022-10-31T10:29:17;16.10;99.90
19483;DHT22;9882;51.166;6.992;2022-10-31T10:31:51;16.00;99.90
19483;DHT22;9882;51.166;6.992;2022-10-31T10:34:27;16.40;99.90
19483;DHT22;9882;51.166;6.992;2022-10-31T10:36:58;16.50;99.90
19483;DHT22;9882;51.166;6.992;2022-10-31T10:39:32;16.50;99.90
19483;DHT22;9882;51.166;6.992;2022-10-31T10:42:01;16.10;99.90
19483;DHT22;9882;51.166;6.992;2022-10-31T10:44:53;16.10;99.90
19483;DHT22;9882;51.166;6.992;2022-10-31T10:47:44;16.40;99.90
19483;DHT22;9882;51.166;6.992;2022-10-31T10:50:18;16.60;99.90
19483;DHT22;9882;51.166;6.992;2022-10-31T10:52:52;16.80;99.90
19483;DHT22;9882;51.166;6.992;2022-10-31T10:55:34;16.70;99.90
19483;DHT22;9882;51.166;6.992;2022-10-31T10:58:07;16.80;99.90
19483;DHT22;9882;51.166;6.992;2022-10-31T11:00:38;16.50;99.90
19483;DHT22;9882;51.166;6.992;2022-10-31T11:03:08;16.90;99.90
19483;DHT22;9882;51.166;6.992;2022-10-31T11:05:40;17.10;99.90
19483;DHT22;9882;51.166;6.992;2022-10-31T11:08:23;17.20;99.90
19483;DHT22;9882;51.166;6.992;2022-10-31T11:10:58;17.10;99.90
19483;DHT22;9882;51.166;6.992;2022-10-31T11:13:28;17.00;99.90
19483;DHT22;9882;51.166;6.992;2022-10-31T11:16:00;17.00;99.90
19483;DHT22;9882;51.166;6.992;2022-10-31T11:18:30;17.10;99.90
19483;DHT22;9882;51.166;6.992;2022-10-31T11:21:02;17.00;99.90
19483;DHT22;9882;51.166;6.992;2022-10-31T11:23:32;17.30;99.90
19483;DHT22;9882;51.166;6.992;2022-10-31T11:26:02;17.00;99.90
19483;DHT22;9882;51.166;6.992;2022-10-31T11:28:33;17.50;99.90
19483;DHT22;9882;51.166;6.992;2022-10-31T11:31:07;17.40;99.90
19483;DHT22;9882;51.166;6.992;2022-10-31T11:33:38;17.30;99.90
19483;DHT22;9882;51.166;6.992;2022-10-31T11:36:18;17.40;99.90
19483;DHT22;9882;51.166;6.992;2022-10-31T11:38:47;17.40;99.90
19483;DHT22;9882;51.166;6.992;2022-10-31T11:41:17;17.60;99.90
19483;DHT22;9882;51.166;6.992;2022-10-31T11:43:50;17.70;99.90
19483;DHT22;9882;51.166;6.992;2022-10-31T11:46:22;17.80;99.90
19483;DHT22;9882;51.166;6.992;2022-10-31T11:48:53;18.10;99.90
19483;DHT22;9882;51.166;6.992;2022-10-31T11:51:27;18.10;99.90
19483;DHT22;9882;51.166;6.992;2022-10-31T11:53:58;18.20;99.90
19483;DHT22;9882;51.166;6.992;2022-10-31T11:56:38;18.40;99.90
19483;DHT22;9882;51.166;6.992;2022-10-31T11:59:18;18.10;99.90
19483;DHT22;9882;51.166;6.992;2022-10-31T12:01:48;18.20;99.90
19483;DHT22;9882;51.166;6.992;2022-10-31T12:04:17;17.70;99.90
19483;DHT22;9882;51.166;6.992;2022-10-31T12:06:54;17.50;99.90
19483;DHT22;9882;51.166;6.992;2022-10-31T12:09:24;17.80;99.90
19483;DHT22;9882;51.166;6.992;2022-10-31T12:12:10;18.20;99.90
19483;DHT22;9882;51.166;6.992;2022-10-31T12:14:51;18.10;99.90
19483;DHT22;9882;51.166;6.992;2022-10-31T12:17:23;18.00;99.90
19483;DHT22;9882;51.166;6.992;2022-10-31T12:20:02;18.10;99.90
19483;DHT22;9882;51.166;6.992;2022-10-31T12:22:41;18.30;99.90
19483;DHT22;9882;51.166;6.992;2022-10-31T12:25:21;18.50;99.90
19483;DHT22;9882;51.166;6.992;2022-10-31T12:28:00;18.50;99.90
19483;DHT22;9882;51.166;6.992;2022-10-31T12:30:50;18.30;99.90
19483;DHT22;9882;51.166;6.992;2022-10-31T12:33:44;18.30;99.90
19483;DHT22;9882;51.166;6.992;2022-10-31T12:36:25;18.40;99.90
19483;DHT22;9882;51.166;6.992;2022-10-31T12:39:10;18.40;99.90
19483;DHT22;9882;51.166;6.992;2022-10-31T12:41:52;18.40;99.90
19483;DHT22;9882;51.166;6.992;2022-10-31T12:44:35;18.50;99.90
19483;DHT22;9882;51.166;6.992;2022-10-31T12:47:27;18.70;99.90
19483;DHT22;9882;51.166;6.992;2022-10-31T12:50:08;18.70;99.90
19483;DHT22;9882;51.166;6.992;2022-10-31T12:52:50;18.60;99.90
19483;DHT22;9882;51.166;6.992;2022-10-31T12:55:35;18.50;99.90
19483;DHT22;9882;51.166;6.992;2022-10-31T12:58:10;18.60;99.90
19483;DHT22;9882;51.166;6.992;2022-10-31T13:00:45;18.60;99.90
19483;DHT22;9882;51.166;6.992;2022-10-31T13:03:23;18.70;99.90
19483;DHT22;9882;51.166;6.992;2022-10-31T13:05:56;18.60;99.90
19483;DHT22;9882;51.166;6.992;2022-10-31T13:08:28;18.50;99.90
19483;DHT22;9882;51.166;6.992;2022-10-31T13:11:05;18.50;99.90
19483;DHT22;9882;51.166;6.992;2022-10-31T13:13:38;18.50;99.90
19483;DHT22;9882;51.166;6.992;2022-10-31T13:16:12;18.50;99.90
19483;DHT22;9882;51.166;6.992;2022-10-31T13:18:45;18.70;99.90
19483;DHT22;9882;51.166;6.992;2022-10-31T13:21:20;18.70;99.90
19483;DHT22;9882;51.166;6.992;2022-10-31T13:23:50;18.70;99.90
19483;DHT22;9882;51.166;6.992;2022-10-31T13:26:26;18.70;99.90
19483;DHT22;9882;51.166;6.992;2022-10-31T13:29:08;18.80;99.90
19483;DHT22;9882;51.166;6.992;2022-10-31T13:31:39;18.80;99.90
19483;DHT22;9882;51.166;6.992;2022-10-31T13:34:17;18.70;99.90
19483;DHT22;9882;51.166;6.992;2022-10-31T13:36:55;18.80;99.90
19483;DHT22;9882;51.166;6.992;2022-10-31T13:39:32;18.90;99.90
19483;DHT22;9882;51.166;6.992;2022-10-31T13:42:10;18.80;99.90
19483;DHT22;9882;51.166;6.992;2022-10-31T13:44:41;19.00;99.90
19483;DHT22;9882;51.166;6.992;2022-10-31T13:47:28;19.20;99.90
19483;DHT22;9882;51.166;6.992;2022-10-31T13:50:19;19.10;99.90
19483;DHT22;9882;51.166;6.992;2022-10-31T13:52:48;19.20;99.90
19483;DHT22;9882;51.166;6.992;2022-10-31T13:55:36;19.30;99.90
19483;DHT22;9882;51.166;6.992;2022-10-31T13:58:20;19.20;99.90
19483;DHT22;9882;51.166;6.992;2022-10-31T14:01:10;19.20;99.90
19483;DHT22;9882;51.166;6.992;2022-10-31T14:03:41;19.30;99.90
19483;DHT22;9882;51.166;6.992;2022-10-31T14:06:56;19.50;99.90
19483;DHT22;9882;51.166;6.992;2022-10-31T14:09:30;19.60;99.90
19483;DHT22;9882;51.166;6.992;2022-10-31T14:12:03;19.40;99.90
19483;DHT22;9882;51.166;6.992;2022-10-31T14:14:42;19.10;99.90
19483;DHT22;9882;51.166;6.992;2022-10-31T14:17:18;19.10;99.90
19483;DHT22;9882;51.166;6.992;2022-10-31T14:20:01;19.10;99.90
19483;DHT22;9882;51.166;6.992;2022-10-31T14:22:31;19.20;99.90
19483;DHT22;9882;51.166;6.992;2022-10-31T14:25:01;19.20;99.90
19483;DHT22;9882;51.166;6.992;2022-10-31T14:27:34;19.20;99.90
19483;DHT22;9882;51.166;6.992;2022-10-31T14:30:14;19.10;99.90
19483;DHT22;9882;51.166;6.992;2022-10-31T14:32:43;19.10;99.90
19483;DHT22;9882;51.166;6.992;2022-10-31T14:35:15;19.10;99.90
19483;DHT22;9882;51.166;6.992;2022-10-31T14:38:12;19.10;99.90
19483;DHT22;9882;51.166;6.992;2022-10-31T14:40:55;19.00;99.90
19483;DHT22;9882;51.166;6.992;2022-10-31T14:43:50;19.00;99.90
19483;DHT22;9882;51.166;6.992;2022-10-31T14:46:32;19.00;99.90
19483;DHT22;9882;51.166;6.992;2022-10-31T14:49:18;18.90;99.90
19483;DHT22;9882;51.166;6.992;2022-10-31T14:51:51;19.00;99.90
19483;DHT22;9882;51.166;6.992;2022-10-31T14:54:25;19.00;99.90
19483;DHT22;9882;51.166;6.992;2022-10-31T14:56:56;19.00;99.90
19483;DHT22;9882;51.166;6.992;2022-10-31T14:59:30;19.10;99.90
19483;DHT22;9882;51.166;6.992;2022-10-31T15:02:07;19.10;99.90
19483;DHT22;9882;51.166;6.992;2022-10-31T15:04:38;19.00;99.90
19483;DHT22;9882;51.166;6.992;2022-10-31T15:07:11;18.90;99.90
19483;DHT22;9882;51.166;6.992;2022-10-31T15:09:41;19.00;99.90
19483;DHT22;9882;51.166;6.992;2022-10-31T15:12:23;18.90;99.90
19483;DHT22;9882;51.166;6.992;2022-10-31T15:14:53;19.00;99.90
19483;DHT22;9882;51.166;6.992;2022-10-31T15:17:24;19.00;99.90
19483;DHT22;9882;51.166;6.992;2022-10-31T15:19:53;18.90;99.90
19483;DHT22;9882;51.166;6.992;2022-10-31T15:22:35;18.90;99.90
19483;DHT22;9882;51.166;6.992;2022-10-31T15:25:04;18.90;99.90
19483;DHT22;9882;51.166;6.992;2022-10-31T15:27:34;18.80;99.90
19483;DHT22;9882;51.166;6.992;2022-10-31T15:30:15;18.90;99.90
19483;DHT22;9882;51.166;6.992;2022-10-31T15:32:45;18.80;99.90
19483;DHT22;9882;51.166;6.992;2022-10-31T15:35:23;18.70;99.90
19483;DHT22;9882;51.166;6.992;2022-10-31T15:37:53;18.80;99.90
19483;DHT22;9882;51.166;6.992;2022-10-31T15:40:23;18.80;99.90
19483;DHT22;9882;51.166;6.992;2022-10-31T15:42:55;18.70;99.90
19483;DHT22;9882;51.166;6.992;2022-10-31T15:45:25;18.70;99.90
19483;DHT22;9882;51.166;6.992;2022-10-31T15:47:59;18.60;99.90
19483;DHT22;9882;51.166;6.992;2022-10-31T15:50:32;18.70;99.90
19483;DHT22;9882;51.166;6.992;2022-10-31T15:53:05;18.70;99.90
19483;DHT22;9882;51.166;6.992;2022-10-31T15:55:38;18.60;99.90
19483;DHT22;9882;51.166;6.992;2022-10-31T15:58:14;18.60;99.90
19483;DHT22;9882;51.166;6.992;2022-10-31T16:00:44;18.50;99.90
19483;DHT22;9882;51.166;6.992;2022-10-31T16:03:24;18.50;99.90
19483;DHT22;9882;51.166;6.992;2022-10-31T16:05:55;18.50;99.90
19483;DHT22;9882;51.166;6.992;2022-10-31T16:08:30;18.40;99.90
19483;DHT22;9882;51.166;6.992;2022-10-31T16:11:13;18.40;99.90
19483;DHT22;9882;51.166;6.992;2022-10-31T16:13:54;18.50;99.90
19483;DHT22;9882;51.166;6.992;2022-10-31T16:16:23;18.50;99.90
19483;DHT22;9882;51.166;6.992;2022-10-31T16:19:16;18.30;99.90
19483;DHT22;9882;51.166;6.992;2022-10-31T16:21:48;18.40;99.90
19483;DHT22;9882;51.166;6.992;2022-10-31T16:24:24;18.40;99.90
19483;DHT22;9882;51.166;6.992;2022-10-31T16:26:55;18.30;99.90
19483;DHT22;9882;51.166;6.992;2022-10-31T16:29:32;18.40;99.90
19483;DHT22;9882;51.166;6.992;2022-10-31T16:32:01;18.30;99.90
19483;DHT22;9882;51.166;6.992;2022-10-31T16:34:31;18.30;99.90
19483;DHT22;9882;51.166;6.992;2022-10-31T16:37:01;18.30;99.90
19483;DHT22;9882;51.166;6.992;2022-10-31T16:39:30;18.30;99.90
19483;DHT22;9882;51.166;6.992;2022-10-31T16:41:58;18.20;99.90
19483;DHT22;9882;51.166;6.992;2022-10-31T16:44:27;18.10;99.90
19483;DHT22;9882;51.166;6.992;2022-10-31T16:47:08;18.20;99.90
19483;DHT22;9882;51.166;6.992;2022-10-31T16:49:38;18.20;99.90
19483;DHT22;9882;51.166;6.992;2022-10-31T16:52:07;18.30;99.90
19483;DHT22;9882;51.166;6.992;2022-10-31T16:54:35;18.20;99.90
19483;DHT22;9882;51.166;6.992;2022-10-31T16:57:05;18.30;99.90
19483;DHT22;9882;51.166;6.992;2022-10-31T16:59:34;18.20;99.90
19483;DHT22;9882;51.166;6.992;2022-10-31T17:02:03;18.20;99.90
19483;DHT22;9882;51.166;6.992;2022-10-31T17:04:32;18.20;99.90
19483;DHT22;9882;51.166;6.992;2022-10-31T17:07:05;18.10;99.90
19483;DHT22;9882;51.166;6.992;2022-10-31T17:09:33;18.10;99.90
19483;DHT22;9882;51.166;6.992;2022-10-31T17:12:02;18.10;99.90
19483;DHT22;9882;51.166;6.992;2022-10-31T17:14:32;18.10;99.90
19483;DHT22;9882;51.166;6.992;2022-10-31T17:17:00;18.10;99.90
19483;DHT22;9882;51.166;6.992;2022-10-31T17:19:29;18.20;99.90
19483;DHT22;9882;51.166;6.992;2022-10-31T17:21:57;18.10;99.90
19483;DHT22;9882;51.166;6.992;2022-10-31T17:24:27;18.10;99.90
19483;DHT22;9882;51.166;6.992;2022-10-31T17:26:55;18.10;99.90
19483;DHT22;9882;51.166;6.992;2022-10-31T17:29:24;18.10;99.90
19483;DHT22;9882;51.166;6.992;2022-10-31T17:31:52;18.00;99.90
19483;DHT22;9882;51.166;6.992;2022-10-31T17:34:21;18.00;99.90
19483;DHT22;9882;51.166;6.992;2022-10-31T17:36:50;17.90;99.90
19483;DHT22;9882;51.166;6.992;2022-10-31T17:39:19;18.00;99.90
19483;DHT22;9882;51.166;6.992;2022-10-31T17:41:51;17.90;99.90
19483;DHT22;9882;51.166;6.992;2022-10-31T17:44:19;17.90;99.90
19483;DHT22;9882;51.166;6.992;2022-10-31T17:46:48;17.90;99.90
19483;DHT22;9882;51.166;6.992;2022-10-31T17:49:16;17.80;99.90
19483;DHT22;9882;51.166;6.992;2022-10-31T17:51:45;17.90;99.90
19483;DHT22;9882;51.166;6.992;2022-10-31T17:54:14;17.90;99.90
19483;DHT22;9882;51.166;6.992;2022-10-31T17:56:44;17.90;99.90
19483;DHT22;9882;51.166;6.992;2022-10-31T17:59:14;17.80;99.90
19483;DHT22;9882;51.166;6.992;2022-10-31T18:01:43;17.70;99.90
19483;DHT22;9882;51.166;6.992;2022-10-31T18:04:12;17.70;99.90
19483;DHT22;9882;51.166;6.992;2022-10-31T18:06:40;17.70;99.90
19483;DHT22;9882;51.166;6.992;2022-10-31T18:09:09;17.70;99.90
19483;DHT22;9882;51.166;6.992;2022-10-31T18:11:40;17.70;99.90
19483;DHT22;9882;51.166;6.992;2022-10-31T18:14:09;17.70;99.90
19483;DHT22;9882;51.166;6.992;2022-10-31T18:16:39;17.60;99.90
19483;DHT22;9882;51.166;6.992;2022-10-31T18:19:11;17.60;99.90
19483;DHT22;9882;51.166;6.992;2022-10-31T18:21:40;17.50;99.90
19483;DHT22;9882;51.166;6.992;2022-10-31T18:24:09;17.50;99.90
19483;DHT22;9882;51.166;6.992;2022-10-31T18:26:38;17.40;99.90
19483;DHT22;9882;51.166;6.992;2022-10-31T18:29:06;17.60;99.90
19483;DHT22;9882;51.166;6.992;2022-10-31T18:31:35;17.50;99.90
19483;DHT22;9882;51.166;6.992;2022-10-31T18:34:15;17.50;99.90
19483;DHT22;9882;51.166;6.992;2022-10-31T18:36:56;17.50;99.90
19483;DHT22;9882;51.166;6.992;2022-10-31T18:40:09;17.50;99.90
19483;DHT22;9882;51.166;6.992;2022-10-31T18:43:21;17.50;99.90
19483;DHT22;9882;51.166;6.992;2022-10-31T18:46:12;17.40;99.90
19483;DHT22;9882;51.166;6.992;2022-10-31T18:49:09;17.50;99.90
19483;DHT22;9882;51.166;6.992;2022-10-31T18:51:37;17.40;99.90
19483;DHT22;9882;51.166;6.992;2022-10-31T18:54:24;17.40;99.90
19483;DHT22;9882;51.166;6.992;2022-10-31T18:56:53;17.30;99.90
19483;DHT22;9882;51.166;6.992;2022-10-31T18:59:22;17.40;99.90
19483;DHT22;9882;51.166;6.992;2022-10-31T19:01:52;17.40;99.90
19483;DHT22;9882;51.166;6.992;2022-10-31T19:04:32;17.40;99.90
19483;DHT22;9882;51.166;6.992;2022-10-31T19:07:26;17.40;99.90
19483;DHT22;9882;51.166;6.992;2022-10-31T19:10:16;17.40;99.90
19483;DHT22;9882;51.166;6.992;2022-10-31T19:12:45;17.30;99.90
19483;DHT22;9882;51.166;6.992;2022-10-31T19:15:13;17.30;99.90
19483;DHT22;9882;51.166;6.992;2022-10-31T19:17:42;17.20;99.90
19483;DHT22;9882;51.166;6.992;2022-10-31T19:20:13;17.30;99.90
19483;DHT22;9882;51.166;6.992;2022-10-31T19:22:41;17.20;99.90
19483;DHT22;9882;51.166;6.992;2022-10-31T19:25:10;17.20;99.90
19483;DHT22;9882;51.166;6.992;2022-10-31T19:27:39;17.20;99.90
19483;DHT22;9882;51.166;6.992;2022-10-31T19:30:09;17.20;99.90
19483;DHT22;9882;51.166;6.992;2022-10-31T19:32:37;17.20;99.90
19483;DHT22;9882;51.166;6.992;2022-10-31T19:35:07;17.20;99.90
19483;DHT22;9882;51.166;6.992;2022-10-31T19:37:39;17.10;99.90
19483;DHT22;9882;51.166;6.992;2022-10-31T19:40:09;17.10;99.90
19483;DHT22;9882;51.166;6.992;2022-10-31T19:42:38;17.10;99.90
19483;DHT22;9882;51.166;6.992;2022-10-31T19:45:07;17.10;99.90
19483;DHT22;9882;51.166;6.992;2022-10-31T19:47:37;17.10;99.90
19483;DHT22;9882;51.166;6.992;2022-10-31T19:50:06;17.10;99.90
19483;DHT22;9882;51.166;6.992;2022-10-31T19:52:35;17.10;99.90
19483;DHT22;9882;51.166;6.992;2022-10-31T19:55:06;17.00;99.90
19483;DHT22;9882;51.166;6.992;2022-10-31T19:57:35;17.00;99.90
19483;DHT22;9882;51.166;6.992;2022-10-31T20:00:23;17.00;99.90
19483;DHT22;9882;51.166;6.992;2022-10-31T20:02:52;17.00;99.90
19483;DHT22;9882;51.166;6.992;2022-10-31T20:05:20;17.00;99.90
19483;DHT22;9882;51.166;6.992;2022-10-31T20:07:49;17.00;99.90
19483;DHT22;9882;51.166;6.992;2022-10-31T20:10:19;17.00;99.90
19483;DHT22;9882;51.166;6.992;2022-10-31T20:12:47;17.00;99.90
19483;DHT22;9882;51.166;6.992;2022-10-31T20:15:16;17.00;99.90
19483;DHT22;9882;51.166;6.992;2022-10-31T20:17:45;17.00;99.90
19483;DHT22;9882;51.166;6.992;2022-10-31T20:20:13;17.00;99.90
19483;DHT22;9882;51.166;6.992;2022-10-31T20:22:42;16.90;99.90
19483;DHT22;9882;51.166;6.992;2022-10-31T20:25:18;17.00;99.90
19483;DHT22;9882;51.166;6.992;2022-10-31T20:27:47;16.90;99.90
19483;DHT22;9882;51.166;6.992;2022-10-31T20:30:16;16.80;99.90
19483;DHT22;9882;51.166;6.992;2022-10-31T20:32:45;17.00;99.90
19483;DHT22;9882;51.166;6.992;2022-10-31T20:35:16;16.90;99.90
19483;DHT22;9882;51.166;6.992;2022-10-31T20:37:45;16.90;99.90
19483;DHT22;9882;51.166;6.992;2022-10-31T20:40:14;16.80;99.90
19483;DHT22;9882;51.166;6.992;2022-10-31T20:42:43;16.90;99.90
19483;DHT22;9882;51.166;6.992;2022-10-31T20:45:12;16.80;99.90
19483;DHT22;9882;51.166;6.992;2022-10-31T20:47:41;16.90;99.90
19483;DHT22;9882;51.166;6.992;2022-10-31T20:50:10;16.80;99.90
19483;DHT22;9882;51.166;6.992;2022-10-31T20:52:38;16.90;99.90
19483;DHT22;9882;51.166;6.992;2022-10-31T20:55:07;16.90;99.90
19483;DHT22;9882;51.166;6.992;2022-10-31T20:57:37;16.80;99.90
19483;DHT22;9882;51.166;6.992;2022-10-31T21:00:09;16.90;99.90
19483;DHT22;9882;51.166;6.992;2022-10-31T21:02:39;16.90;99.90
19483;DHT22;9882;51.166;6.992;2022-10-31T21:05:09;16.80;99.90
19483;DHT22;9882;51.166;6.992;2022-10-31T21:07:39;16.80;99.90
19483;DHT22;9882;51.166;6.992;2022-10-31T21:10:08;16.80;99.90
19483;DHT22;9882;51.166;6.992;2022-10-31T21:12:42;16.70;99.90
19483;DHT22;9882;51.166;6.992;2022-10-31T21:15:13;16.80;99.90
19483;DHT22;9882;51.166;6.992;2022-10-31T21:17:41;16.80;99.90
19483;DHT22;9882;51.166;6.992;2022-10-31T21:20:10;16.80;99.90
19483;DHT22;9882;51.166;6.992;2022-10-31T21:22:38;16.70;99.90
19483;DHT22;9882;51.166;6.992;2022-10-31T21:25:07;16.70;99.90
19483;DHT22;9882;51.166;6.992;2022-10-31T21:27:36;16.70;99.90
19483;DHT22;9882;51.166;6.992;2022-10-31T21:30:05;16.70;99.90
19483;DHT22;9882;51.166;6.992;2022-10-31T21:32:37;16.80;99.90
19483;DHT22;9882;51.166;6.992;2022-10-31T21:35:06;16.70;99.90
19483;DHT22;9882;51.166;6.992;2022-10-31T21:37:35;16.60;99.90